Time;durP1;ratioP1;P1;durP2;ratioP2;P2;SDS_P1;SDS_P2;PMS_P1;PMS_P2;Temp;Humidity;BMP_temperature;BMP_pressure;BME280_temperature;BME280_humidity;BME280_pressure;Samples;Min_cycle;Max_cycle;Signal;HPM_P1;HPM_P2
2023/08/08 00:02:37;;;;;;;;;;;;;;;;;;5015948;28;19914;-77
2023/08/08 00:05:23;;;;;;;;;;;;;;;;;;5009528;28;19924;-76
2023/08/08 00:08:10;;;;;;;;;;;;;;;;;;5012988;28;19918;-76
2023/08/08 00:10:56;;;;;;;;;;;;;;;;;;5015215;28;20293;-78
2023/08/08 00:13:42;;;;;;;;;;;;;;;;;;5013271;28;20486;-78
2023/08/08 00:16:29;;;;;;;;;;;;;;;;;;5019246;28;19921;-76
2023/08/08 00:19:15;;;;;;;;;;;;;;;;;;5020705;28;20405;-79
2023/08/08 00:22:02;;;;;;;;;;;;;;;;;;5019095;28;19929;-78
2023/08/08 00:24:48;;;;;;;;;;;;;;;;;;5018027;28;20349;-78
2023/08/08 00:27:35;;;;;;;;;;;;;;;;;;5001806;28;19929;-78
2023/08/08 00:30:21;;;;;;;;;;;;;;;;;;4995620;28;19932;-77
2023/08/08 00:33:08;;;;;;;;;;;;;;;;;;4994541;28;20305;-78
2023/08/08 00:35:54;;;;;;;;;;;;;;;;;;4988577;28;19925;-78
2023/08/08 00:38:41;;;;;;;;;;;;;;;;;;4999197;28;19926;-78
2023/08/08 00:41:27;;;;;;;;;;;;;;;;;;5000285;28;19925;-78
2023/08/08 00:44:14;;;;;;;;;;;;;;;;;;5001082;28;20365;-78
2023/08/08 00:47:00;;;;;;;;;;;;;;;;;;4995738;28;19937;-78
2023/08/08 00:49:48;;;;;;;;;;;;;;;;;;4999065;28;20289;-77
2023/08/08 00:52:35;;;;;;;;;;;;;;;;;;4988966;28;19924;-77
2023/08/08 00:55:21;;;;;;;;;;;;;;;;;;4997267;28;19932;-77
2023/08/08 00:58:07;;;;;;;;;;;;;;;;;;4999819;28;19921;-77
2023/08/08 01:00:56;;;;;;;;;;;;;;;;;;5004458;28;19917;-78
2023/08/08 01:03:43;;;;;;;;;;;;;;;;;;5001396;28;19924;-77
2023/08/08 01:06:29;;;;;;;;;;;;;;;;;;5003695;28;19929;-77
2023/08/08 01:09:16;;;;;;;;;;;;;;;;;;4996480;28;19921;-77
2023/08/08 01:12:02;;;;;;;;;;;;;;;;;;5003349;28;19922;-77
2023/08/08 01:14:49;;;;;;;;;;;;;;;;;;5003520;28;19925;-77
2023/08/08 01:17:35;;;;;;;;;;;;;;;;;;5001878;28;19924;-77
2023/08/08 01:20:22;;;;;;;;;;;;;;;;;;5005441;28;20300;-76
2023/08/08 01:23:09;;;;;;;;;;;;;;;;;;5006332;28;19917;-76
2023/08/08 01:25:56;;;;;;;;;;;;;;;;;;5005324;28;19931;-78
2023/08/08 01:28:43;;;;;;;;;;;;;;;;;;5020895;28;19921;-77
2023/08/08 01:31:29;;;;;;;;;;;;;;;;;;5026502;28;20312;-76
2023/08/08 01:34:15;;;;;;;;;;;;;;;;;;5019556;28;20322;-75
2023/08/08 01:37:02;;;;;;;;;;;;;;;;;;5020941;28;19913;-75
2023/08/08 01:39:48;;;;;;;;;;;;;;;;;;5016589;28;19921;-76
2023/08/08 01:42:35;;;;;;;;;;;;;;;;;;5023674;28;19924;-77
2023/08/08 01:45:24;;;;;;;;;;;;;;;;;;5021764;28;20058;-77
2023/08/08 01:48:11;;;;;;;;;;;;;;;;;;5015224;28;19921;-77
2023/08/08 01:50:57;;;;;;;;;;;;;;;;;;5023004;28;23112;-77
2023/08/08 01:53:44;;;;;;;;;;;;;;;;;;5018115;28;19940;-78
2023/08/08 01:56:30;;;;;;;;;;;;;;;;;;5019455;28;19921;-77
2023/08/08 01:59:16;;;;;;;;;;;;;;;;;;5018946;28;20286;-77
2023/08/08 02:02:03;;;;;;;;;;;;;;;;;;5022413;28;19928;-78
2023/08/08 02:04:49;;;;;;;;;;;;;;;;;;5022296;28;20367;-78
2023/08/08 02:07:36;;;;;;;;;;;;;;;;;;5027968;28;19925;-78
2023/08/08 02:10:22;;;;;;;;;;;;;;;;;;5017978;28;20296;-77
2023/08/08 02:13:09;;;;;;;;;;;;;;;;;;5018676;28;20615;-77
2023/08/08 02:15:55;;;;;;;;;;;;;;;;;;5012588;28;19924;-77
2023/08/08 02:18:42;;;;;;;;;;;;;;;;;;5021944;28;20289;-77
2023/08/08 02:21:28;;;;;;;;;;;;;;;;;;5024528;28;19928;-77
2023/08/08 02:24:15;;;;;;;;;;;;;;;;;;5018645;28;19924;-77
2023/08/08 02:27:02;;;;;;;;;;;;;;;;;;5022566;28;19929;-78
2023/08/08 02:29:48;;;;;;;;;;;;;;;;;;5010775;28;19922;-78
2023/08/08 02:32:35;;;;;;;;;;;;;;;;;;5023947;28;19943;-77
2023/08/08 02:35:21;;;;;;;;;;;;;;;;;;5009993;28;19917;-78
2023/08/08 02:38:07;;;;;;;;;;;;;;;;;;5012404;28;19921;-78
2023/08/08 02:40:54;;;;;;;;;;;;;;;;;;5013269;28;20325;-78
2023/08/08 02:43:40;;;;;;;;;;;;;;;;;;5024613;28;19924;-78
2023/08/08 02:46:27;;;;;;;;;;;;;;;;;;5021991;28;19917;-78
2023/08/08 02:49:13;;;;;;;;;;;;;;;;;;5009312;28;19921;-78
2023/08/08 02:52:00;;;;;;;;;;;;;;;;;;5017275;28;19940;-78
2023/08/08 02:54:46;;;;;;;;;;;;;;;;;;5019616;28;20385;-78
2023/08/08 02:57:33;;;;;;;;;;;;;;;;;;5023536;28;19931;-78
2023/08/08 03:00:19;;;;;;;;;;;;;;;;;;4999766;28;19928;-78
2023/08/08 03:03:06;;;;;;;;;;;;;;;;;;5016329;28;19921;-78
2023/08/08 03:05:52;;;;;;;;;;;;;;;;;;5017486;28;19924;-78
2023/08/08 03:08:39;;;;;;;;;;;;;;;;;;5021663;28;20340;-78
2023/08/08 03:11:25;;;;;;;;;;;;;;;;;;5022443;28;19936;-77
2023/08/08 03:14:12;;;;;;;;;;;;;;;;;;5017509;28;19947;-78
2023/08/08 03:16:58;;;;;;;;;;;;;;;;;;5015869;28;19917;-78
2023/08/08 03:19:44;;;;;;;;;;;;;;;;;;5020275;28;19924;-78
2023/08/08 03:22:31;;;;;;;;;;;;;;;;;;5014773;28;19928;-77
2023/08/08 03:25:17;;;;;;;;;;;;;;;;;;5021823;28;19918;-78
2023/08/08 03:28:04;;;;;;;;;;;;;;;;;;5006261;28;19940;-78
2023/08/08 03:30:50;;;;;;;;;;;;;;;;;;4997236;28;19933;-78
2023/08/08 03:33:37;;;;;;;;;;;;;;;;;;4998733;28;19918;-77
2023/08/08 03:36:23;;;;;;;;;;;;;;;;;;4999663;28;20202;-77
2023/08/08 03:39:10;;;;;;;;;;;;;;;;;;5008608;28;19956;-77
2023/08/08 03:41:56;;;;;;;;;;;;;;;;;;4994358;28;20396;-77
2023/08/08 03:44:45;;;;;;;;;;;;;;;;;;4996208;28;19926;-78
2023/08/08 03:47:31;;;;;;;;;;;;;;;;;;4991514;28;19925;-79
2023/08/08 03:50:18;;;;;;;;;;;;;;;;;;4996588;28;20300;-79
2023/08/08 03:53:04;;;;;;;;;;;;;;;;;;4998543;28;19932;-79
2023/08/08 03:55:51;;;;;;;;;;;;;;;;;;4999483;28;19944;-79
2023/08/08 03:58:37;;;;;;;;;;;;;;;;;;4998209;28;19922;-78
2023/08/08 04:01:24;;;;;;;;;;;;;;;;;;4993947;28;19924;-78
2023/08/08 04:04:10;;;;;;;;;;;;;;;;;;4992215;28;19917;-77
2023/08/08 04:06:57;;;;;;;;;;;;;;;;;;4991984;28;19926;-78
2023/08/08 04:09:43;;;;;;;;;;;;;;;;;;4996930;28;20385;-77
2023/08/08 04:12:30;;;;;;;;;;;;;;;;;;4996847;28;20424;-77
2023/08/08 04:15:16;;;;;;;;;;;;;;;;;;5010725;28;19924;-76
2023/08/08 04:18:03;;;;;;;;;;;;;;;;;;4995057;28;19933;-77
2023/08/08 04:20:49;;;;;;;;;;;;;;;;;;4990579;28;19928;-77
2023/08/08 04:23:35;;;;;;;;;;;;;;;;;;4992372;28;19928;-76
2023/08/08 04:26:22;;;;;;;;;;;;;;;;;;4998109;28;20435;-77
2023/08/08 04:29:09;;;;;;;;;;;;;;;;;;5004705;28;20452;-77
2023/08/08 04:31:55;;;;;;;;;;;;;;;;;;4979831;28;20301;-77
2023/08/08 04:34:41;;;;;;;;;;;;;;;;;;4992721;28;19924;-78
2023/08/08 04:37:28;;;;;;;;;;;;;;;;;;5003739;28;19921;-78
2023/08/08 04:40:14;;;;;;;;;;;;;;;;;;4982700;28;19929;-77
2023/08/08 04:43:01;;;;;;;;;;;;;;;;;;4991284;28;19940;-77
2023/08/08 04:45:47;;;;;;;;;;;;;;;;;;4995179;28;19917;-77
2023/08/08 04:48:34;;;;;;;;;;;;;;;;;;4998436;28;19932;-79
2023/08/08 04:51:20;;;;;;;;;;;;;;;;;;4996584;28;19925;-77
2023/08/08 04:54:07;;;;;;;;;;;;;;;;;;4996038;28;19921;-77
2023/08/08 04:56:53;;;;;;;;;;;;;;;;;;5001548;28;19921;-78
2023/08/08 04:59:40;;;;;;;;;;;;;;;;;;5003758;28;19928;-79
2023/08/08 05:02:26;;;;;;;;;;;;;;;;;;4989002;28;19924;-77
2023/08/08 05:05:13;;;;;;;;;;;;;;;;;;4990301;28;19959;-78
2023/08/08 05:07:59;;;;;;;;;;;;;;;;;;4990091;28;19922;-78
2023/08/08 05:10:46;;;;;;;;;;;;;;;;;;4998758;28;19921;-78
2023/08/08 05:13:32;;;;;;;;;;;;;;;;;;4996820;28;20279;-78
2023/08/08 05:16:19;;;;;;;;;;;;;;;;;;4998221;28;19917;-77
2023/08/08 05:19:05;;;;;;;;;;;;;;;;;;4999339;28;20652;-77
2023/08/08 05:21:52;;;;;;;;;;;;;;;;;;5002932;28;19920;-77
2023/08/08 05:24:38;;;;;;;;;;;;;;;;;;5003399;28;20380;-78
2023/08/08 05:27:24;;;;;;;;;;;;;;;;;;5008100;28;19929;-76
2023/08/08 05:30:11;;;;;;;;;;;;;;;;;;5009209;28;19929;-77
2023/08/08 05:32:57;;;;;;;;;;;;;;;;;;5016598;28;19913;-77
2023/08/08 05:35:44;;;;;;;;;;;;;;;;;;5010401;28;19913;-77
2023/08/08 05:38:30;;;;;;;;;;;;;;;;;;5013804;28;19926;-76
2023/08/08 05:41:17;;;;;;;;;;;;;;;;;;5007940;28;19917;-76
2023/08/08 05:44:03;;;;;;;;;;;;;;;;;;5003001;28;20541;-76
2023/08/08 05:46:50;;;;;;;;;;;;;;;;;;5007325;28;19921;-76
2023/08/08 05:49:36;;;;;;;;;;;;;;;;;;5013192;28;20289;-76
2023/08/08 05:52:23;;;;;;;;;;;;;;;;;;5011677;28;19921;-76
2023/08/08 05:55:09;;;;;;;;;;;;;;;;;;5026613;28;19965;-76
2023/08/08 05:57:56;;;;;;;;;;;;;;;;;;5011448;28;19921;-77
2023/08/08 06:00:42;;;;;;;;;;;;;;;;;;5019830;28;19917;-77
2023/08/08 06:03:29;;;;;;;;;;;;;;;;;;5016354;28;19925;-75
2023/08/08 06:06:15;;;;;;;;;;;;;;;;;;5021065;28;19921;-75
2023/08/08 06:09:02;;;;;;;;;;;;;;;;;;4997439;28;19928;-75
2023/08/08 06:11:49;;;;;;;;;;;;;;;;;;5005504;28;20293;-75
2023/08/08 06:14:35;;;;;;;;;;;;;;;;;;4998130;28;19921;-75
2023/08/08 06:17:23;;;;;;;;;;;;;;;;;;5013667;28;19940;-77
2023/08/08 06:20:10;;;;;;;;;;;;;;;;;;5015388;28;19928;-76
2023/08/08 06:22:56;;;;;;;;;;;;;;;;;;5009397;28;19917;-76
2023/08/08 06:25:43;;;;;;;;;;;;;;;;;;5015221;28;19918;-76
2023/08/08 06:28:30;;;;;;;;;;;;;;;;;;5017049;28;19936;-76
2023/08/08 06:31:16;;;;;;;;;;;;;;;;;;5021220;28;19929;-76
2023/08/08 06:34:03;;;;;;;;;;;;;;;;;;5017973;28;20336;-76
2023/08/08 06:36:49;;;;;;;;;;;;;;;;;;5015608;28;19929;-76
2023/08/08 06:39:38;;;;;;;;;;;;;;;;;;5004794;28;19916;-75
2023/08/08 06:42:24;;;;;;;;;;;;;;;;;;5012012;28;19928;-75
2023/08/08 06:45:11;;;;;;;;;;;;;;;;;;5009562;28;19921;-76
2023/08/08 06:47:57;;;;;;;;;;;;;;;;;;5020233;28;19921;-76
2023/08/08 06:50:44;;;;;;;;;;;;;;;;;;5014411;28;19930;-77
2023/08/08 06:53:30;;;;;;;;;;;;;;;;;;5016543;28;20677;-76
2023/08/08 06:56:16;;;;;;;;;;;;;;;;;;5016448;28;19917;-76
2023/08/08 06:59:03;;;;;;;;;;;;;;;;;;5019007;28;20811;-76
2023/08/08 07:01:50;;;;;;;;;;;;;;;;;;5020755;28;19920;-76
2023/08/08 07:04:36;;;;;;;;;;;;;;;;;;5023306;28;19921;-77
2023/08/08 07:07:23;;;;;;;;;;;;;;;;;;5018138;28;19933;-76
2023/08/08 07:10:09;;;;;;;;;;;;;;;;;;5018422;28;19925;-76
2023/08/08 07:12:56;;;;;;;;;;;;;;;;;;5015032;28;20659;-75
2023/08/08 07:15:42;;;;;;;;;;;;;;;;;;5020805;28;19921;-75
2023/08/08 07:18:29;;;;;;;;;;;;;;;;;;5025677;28;19928;-75
2023/08/08 07:21:15;;;;;;;;;;;;;;;;;;5015988;28;19928;-75
2023/08/08 07:24:02;;;;;;;;;;;;;;;;;;5021250;28;20418;-75
2023/08/08 07:26:49;;;;;;;;;;;;;;;;;;5009142;28;19925;-75
2023/08/08 07:29:35;;;;;;;;;;;;;;;;;;5012983;28;19921;-75
2023/08/08 07:32:22;;;;;;;;;;;;;;;;;;5014203;28;19944;-74
2023/08/08 07:35:09;;;;;;;;;;;;;;;;;;5018334;28;19932;-76
2023/08/08 07:37:55;;;;;;;;;;;;;;;;;;5021261;28;19917;-74
2023/08/08 07:40:42;;;;;;;;;;;;;;;;;;5016010;28;19919;-75
2023/08/08 07:43:28;;;;;;;;;;;;;;;;;;5019422;28;19924;-74
2023/08/08 07:46:14;;;;;;;;;;;;;;;;;;5012718;28;19917;-75
2023/08/08 07:49:03;;;;;;;;;;;;;;;;;;5023202;28;19921;-75
2023/08/08 07:51:49;;;;;;;;;;;;;;;;;;5018301;28;19928;-75
2023/08/08 07:54:36;;;;;;;;;;;;;;;;;;5015881;28;19925;-75
2023/08/08 07:57:22;;;;;;;;;;;;;;;;;;5021746;28;20416;-75
2023/08/08 08:00:12;;;;;;;;;;;;;;;;;;5023663;28;19923;-74
2023/08/08 08:02:58;;;;;;;;;;;;;;;;;;5018653;28;19917;-75
2023/08/08 08:05:45;;;;;;;;;;;;;;;;;;5005756;28;20516;-75
2023/08/08 08:08:31;;;;;;;;;;;;;;;;;;5016528;28;19931;-74
2023/08/08 08:11:18;;;;;;;;;;;;;;;;;;5021889;28;19925;-75
2023/08/08 08:14:04;;;;;;;;;;;;;;;;;;5021782;28;19932;-74
2023/08/08 08:16:51;;;;;;;;;;;;;;;;;;5023836;28;19921;-74
2023/08/08 08:19:37;;;;;;;;;;;;;;;;;;5017587;28;20015;-74
2023/08/08 08:22:24;;;;;;;;;;;;;;;;;;5021610;28;19924;-74
2023/08/08 08:25:10;;;;;;;;;;;;;;;;;;5023929;28;19917;-76
2023/08/08 08:27:57;;;;;;;;;;;;;;;;;;4999940;28;19940;-74
2023/08/08 08:30:43;;;;;;;;;;;;;;;;;;5000803;28;20100;-75
2023/08/08 08:33:31;;;;;;;;;;;;;;;;;;5000335;28;19929;-75
2023/08/08 08:36:18;;;;;;;;;;;;;;;;;;4989886;28;19945;-74
2023/08/08 08:39:05;;;;;;;;;;;;;;;;;;5003996;28;19929;-75
2023/08/08 08:41:51;;;;;;;;;;;;;;;;;;5002575;28;19918;-74
2023/08/08 08:44:38;;;;;;;;;;;;;;;;;;4998434;28;20416;-75
2023/08/08 08:47:24;;;;;;;;;;;;;;;;;;5002699;28;19917;-74
2023/08/08 08:50:11;;;;;;;;;;;;;;;;;;5001747;28;19918;-74
2023/08/08 08:52:57;;;;;;;;;;;;;;;;;;5002291;28;20370;-74
2023/08/08 08:55:44;;;;;;;;;;;;;;;;;;5000327;28;19921;-75
2023/08/08 08:58:30;;;;;;;;;;;;;;;;;;4999996;28;20352;-74
2023/08/08 09:01:17;;;;;;;;;;;;;;;;;;4998528;28;19914;-74
2023/08/08 09:04:04;;;;;;;;;;;;;;;;;;4997747;28;20289;-74
2023/08/08 09:06:50;;;;;;;;;;;;;;;;;;4998398;28;19917;-74
2023/08/08 09:09:37;;;;;;;;;;;;;;;;;;4988030;28;19928;-73
2023/08/08 09:12:24;;;;;;;;;;;;;;;;;;4993801;28;19926;-74
2023/08/08 09:15:10;;;;;;;;;;;;;;;;;;4998263;28;19928;-74
2023/08/08 09:17:57;;;;;;;;;;;;;;;;;;5001443;28;20313;-75
2023/08/08 09:20:43;;;;;;;;;;;;;;;;;;4995987;28;19925;-75
2023/08/08 09:23:30;;;;;;;;;;;;;;;;;;4999474;28;20298;-75
2023/08/08 09:26:16;;;;;;;;;;;;;;;;;;4999018;28;19917;-74
2023/08/08 09:29:03;;;;;;;;;;;;;;;;;;5022008;28;20412;-74
2023/08/08 09:31:49;;;;;;;;;;;;;;;;;;5014711;28;20032;-73
2023/08/08 09:34:36;;;;;;;;;;;;;;;;;;5005361;28;19922;-74
2023/08/08 09:37:22;;;;;;;;;;;;;;;;;;5004388;28;20357;-74
2023/08/08 09:40:11;;;;;;;;;;;;;;;;;;5025648;28;19921;-74
2023/08/08 09:42:58;;;;;;;;;;;;;;;;;;5007384;28;19927;-74
2023/08/08 09:45:44;;;;;;;;;;;;;;;;;;5023407;28;20307;-75
2023/08/08 09:48:31;;;;;;;;;;;;;;;;;;5016902;28;19929;-75
2023/08/08 09:51:17;;;;;;;;;;;;;;;;;;5015402;28;19925;-76
2023/08/08 09:54:04;;;;;;;;;;;;;;;;;;5011585;28;19928;-74
2023/08/08 09:56:51;;;;;;;;;;;;;;;;;;5020480;28;19921;-75
2023/08/08 09:59:37;;;;;;;;;;;;;;;;;;5008693;28;20273;-75
2023/08/08 10:02:24;;;;;;;;;;;;;;;;;;5023089;28;19918;-75
2023/08/08 10:05:12;;;;;;;;;;;;;;;;;;5013522;28;19921;-74
2023/08/08 10:07:59;;;;;;;;;;;;;;;;;;5023687;28;19921;-74
2023/08/08 10:10:45;;;;;;;;;;;;;;;;;;5022841;28;19944;-74
2023/08/08 10:13:32;;;;;;;;;;;;;;;;;;5012010;28;20381;-74
2023/08/08 10:16:18;;;;;;;;;;;;;;;;;;5017806;28;19924;-74
2023/08/08 10:19:07;;;;;;;;;;;;;;;;;;5017332;28;19927;-76
2023/08/08 10:21:54;;;;;;;;;;;;;;;;;;5018503;28;19917;-76
2023/08/08 10:24:40;;;;;;;;;;;;;;;;;;5016463;28;19921;-77
2023/08/08 10:27:27;;;;;;;;;;;;;;;;;;5010752;28;19964;-77
2023/08/08 10:30:14;;;;;;;;;;;;;;;;;;5011771;28;19921;-76
2023/08/08 10:33:00;;;;;;;;;;;;;;;;;;5022547;28;21688;-76
2023/08/08 10:35:47;;;;;;;;;;;;;;;;;;5016384;28;19917;-77
2023/08/08 10:38:33;;;;;;;;;;;;;;;;;;5014753;28;19923;-76
2023/08/08 10:41:20;;;;;;;;;;;;;;;;;;5021616;28;20373;-76
2023/08/08 10:44:06;;;;;;;;;;;;;;;;;;5017924;28;19925;-76
2023/08/08 10:46:53;;;;;;;;;;;;;;;;;;5020053;28;20281;-76
2023/08/08 10:49:40;;;;;;;;;;;;;;;;;;5022409;28;19952;-76
2023/08/08 10:52:26;;;;;;;;;;;;;;;;;;5018446;28;19925;-77
2023/08/08 10:55:13;;;;;;;;;;;;;;;;;;5019210;28;19945;-76
2023/08/08 10:57:59;;;;;;;;;;;;;;;;;;5022555;28;20361;-76
2023/08/08 11:00:46;;;;;;;;;;;;;;;;;;5010313;28;20297;-77
2023/08/08 11:03:32;;;;;;;;;;;;;;;;;;5013694;28;20012;-76
2023/08/08 11:06:19;;;;;;;;;;;;;;;;;;5012733;28;20373;-76
2023/08/08 11:09:05;;;;;;;;;;;;;;;;;;5021739;28;19922;-77
2023/08/08 11:11:52;;;;;;;;;;;;;;;;;;5011914;28;19931;-78
2023/08/08 11:14:38;;;;;;;;;;;;;;;;;;5017637;28;19921;-78
2023/08/08 11:17:25;;;;;;;;;;;;;;;;;;5017667;28;19917;-78
2023/08/08 11:20:11;;;;;;;;;;;;;;;;;;4999688;28;19920;-78
2023/08/08 11:22:58;;;;;;;;;;;;;;;;;;5002109;28;19930;-78
2023/08/08 11:25:44;;;;;;;;;;;;;;;;;;5002177;28;19921;-78
2023/08/08 11:28:30;;;;;;;;;;;;;;;;;;5009217;28;19933;-75
2023/08/08 11:31:17;;;;;;;;;;;;;;;;;;5001259;28;19925;-77
2023/08/08 11:34:04;;;;;;;;;;;;;;;;;;5000982;28;19928;-76
2023/08/08 11:36:51;;;;;;;;;;;;;;;;;;5001347;28;19917;-77
2023/08/08 11:39:37;;;;;;;;;;;;;;;;;;5000110;28;20487;-77
2023/08/08 11:42:23;;;;;;;;;;;;;;;;;;5015845;28;19922;-78
2023/08/08 11:45:10;;;;;;;;;;;;;;;;;;5023082;28;20630;-78
2023/08/08 11:47:56;;;;;;;;;;;;;;;;;;5021403;28;19913;-78
2023/08/08 11:50:44;;;;;;;;;;;;;;;;;;5018892;28;19975;-77
2023/08/08 11:53:30;;;;;;;;;;;;;;;;;;5008015;28;20444;-77
2023/08/08 11:56:17;;;;;;;;;;;;;;;;;;5013607;28;19922;-78
2023/08/08 11:59:03;;;;;;;;;;;;;;;;;;5016176;28;20683;-77
2023/08/08 12:01:50;;;;;;;;;;;;;;;;;;5009890;28;19924;-76
2023/08/08 12:04:36;;;;;;;;;;;;;;;;;;5019544;28;20352;-76
2023/08/08 12:07:23;;;;;;;;;;;;;;;;;;5022642;28;19927;-76
2023/08/08 12:10:09;;;;;;;;;;;;;;;;;;5017540;28;19936;-77
2023/08/08 12:12:57;;;;;;;;;;;;;;;;;;5012435;28;20416;-77
2023/08/08 12:15:44;;;;;;;;;;;;;;;;;;5023192;28;20296;-78
2023/08/08 12:18:32;;;;;;;;;;;;;;;;;;5021939;28;19924;-77
2023/08/08 12:21:18;;;;;;;;;;;;;;;;;;5017197;28;19928;-75
2023/08/08 12:24:05;;;;;;;;;;;;;;;;;;5011215;28;19921;-75
2023/08/08 12:26:51;;;;;;;;;;;;;;;;;;5015266;28;20340;-76
2023/08/08 12:29:37;;;;;;;;;;;;;;;;;;5018315;28;19928;-75
2023/08/08 12:32:24;;;;;;;;;;;;;;;;;;5023097;28;19925;-76
2023/08/08 12:35:10;;;;;;;;;;;;;;;;;;5010607;28;19928;-76
2023/08/08 12:37:57;;;;;;;;;;;;;;;;;;5021563;28;19920;-76
2023/08/08 12:40:43;;;;;;;;;;;;;;;;;;5016988;28;20407;-76
2023/08/08 12:43:30;;;;;;;;;;;;;;;;;;5021791;28;19989;-75
2023/08/08 12:46:16;;;;;;;;;;;;;;;;;;5001574;28;19920;-76
2023/08/08 12:49:03;;;;;;;;;;;;;;;;;;5003628;28;19913;-76
2023/08/08 12:51:49;;;;;;;;;;;;;;;;;;4995733;28;20453;-76
2023/08/08 12:54:36;;;;;;;;;;;;;;;;;;4996566;28;19925;-77
2023/08/08 12:57:22;;;;;;;;;;;;;;;;;;4984707;28;19937;-76
2023/08/08 13:00:09;;;;;;;;;;;;;;;;;;5018310;28;19922;-76
2023/08/08 13:02:55;;;;;;;;;;;;;;;;;;5021877;28;19927;-76
2023/08/08 13:05:42;;;;;;;;;;;;;;;;;;5025016;28;19921;-77
2023/08/08 13:08:28;;;;;;;;;;;;;;;;;;5020786;28;19927;-76
2023/08/08 13:11:15;;;;;;;;;;;;;;;;;;5020838;28;20010;-76
2023/08/08 13:14:01;;;;;;;;;;;;;;;;;;5021259;28;19921;-75
2023/08/08 13:16:47;;;;;;;;;;;;;;;;;;5023480;28;19925;-76
2023/08/08 13:19:34;;;;;;;;;;;;;;;;;;5027941;28;20443;-75
2023/08/08 13:22:20;;;;;;;;;;;;;;;;;;5011108;28;19917;-76
2023/08/08 13:25:07;;;;;;;;;;;;;;;;;;5024276;28;20377;-76
2023/08/08 13:27:53;;;;;;;;;;;;;;;;;;5010543;28;19929;-76
2023/08/08 13:30:41;;;;;;;;;;;;;;;;;;5002688;28;19968;-76
2023/08/08 13:33:27;;;;;;;;;;;;;;;;;;5004339;28;19929;-76
2023/08/08 13:36:14;;;;;;;;;;;;;;;;;;4995440;28;19921;-76
2023/08/08 13:39:00;;;;;;;;;;;;;;;;;;4996527;28;19925;-76
2023/08/08 13:41:47;;;;;;;;;;;;;;;;;;4998206;28;20372;-76
2023/08/08 13:44:34;;;;;;;;;;;;;;;;;;4993249;28;19924;-76
2023/08/08 13:47:20;;;;;;;;;;;;;;;;;;4998874;28;19924;-76
2023/08/08 13:50:07;;;;;;;;;;;;;;;;;;4991961;28;19921;-76
2023/08/08 13:52:54;;;;;;;;;;;;;;;;;;4997371;28;19933;-77
2023/08/08 13:55:41;;;;;;;;;;;;;;;;;;5005080;28;19952;-77
2023/08/08 13:58:27;;;;;;;;;;;;;;;;;;4998439;28;19921;-76
2023/08/08 14:01:14;;;;;;;;;;;;;;;;;;5003827;28;19917;-75
2023/08/08 14:04:00;;;;;;;;;;;;;;;;;;5005451;28;19918;-75
2023/08/08 14:06:47;;;;;;;;;;;;;;;;;;5001247;28;20288;-76
2023/08/08 14:09:33;;;;;;;;;;;;;;;;;;5006383;28;19921;-76
2023/08/08 14:12:21;;;;;;;;;;;;;;;;;;4996044;28;20393;-76
2023/08/08 14:15:08;;;;;;;;;;;;;;;;;;5002953;28;19922;-77
2023/08/08 14:17:55;;;;;;;;;;;;;;;;;;5002287;28;19917;-76
2023/08/08 14:20:41;;;;;;;;;;;;;;;;;;4991904;28;19931;-74
2023/08/08 14:23:28;;;;;;;;;;;;;;;;;;5002396;28;20318;-74
2023/08/08 14:26:14;;;;;;;;;;;;;;;;;;4979755;28;19928;-75
2023/08/08 14:29:01;;;;;;;;;;;;;;;;;;5018492;28;19933;-74
2023/08/08 14:31:47;;;;;;;;;;;;;;;;;;5019433;28;19933;-75
2023/08/08 14:34:34;;;;;;;;;;;;;;;;;;5013716;28;19960;-74
2023/08/08 14:37:21;;;;;;;;;;;;;;;;;;5010512;28;20273;-75
2023/08/08 14:40:08;;;;;;;;;;;;;;;;;;5016122;28;19943;-74
2023/08/08 14:42:54;;;;;;;;;;;;;;;;;;5019439;28;19917;-75
2023/08/08 14:45:41;;;;;;;;;;;;;;;;;;5022172;28;19924;-78
2023/08/08 14:48:27;;;;;;;;;;;;;;;;;;5023625;28;19924;-74
2023/08/08 14:51:16;;;;;;;;;;;;;;;;;;5017460;28;20775;-74
2023/08/08 14:54:03;;;;;;;;;;;;;;;;;;5019681;28;19917;-74
2023/08/08 14:56:49;;;;;;;;;;;;;;;;;;5024955;28;20270;-74
2023/08/08 14:59:36;;;;;;;;;;;;;;;;;;5019454;28;19932;-74
2023/08/08 15:02:22;;;;;;;;;;;;;;;;;;5017578;28;19917;-74
2023/08/08 15:05:09;;;;;;;;;;;;;;;;;;5022195;28;20011;-74
2023/08/08 15:07:55;;;;;;;;;;;;;;;;;;5013106;28;19918;-74
2023/08/08 15:10:42;;;;;;;;;;;;;;;;;;5000685;28;19925;-75
2023/08/08 15:13:28;;;;;;;;;;;;;;;;;;5024563;28;19920;-74
2023/08/08 15:16:15;;;;;;;;;;;;;;;;;;5023619;28;19921;-74
2023/08/08 15:19:01;;;;;;;;;;;;;;;;;;5022953;28;20389;-75
2023/08/08 15:21:48;;;;;;;;;;;;;;;;;;5022088;28;19917;-76
2023/08/08 15:24:36;;;;;;;;;;;;;;;;;;5023208;28;19916;-76
2023/08/08 15:27:22;;;;;;;;;;;;;;;;;;5009785;28;20357;-77
2023/08/08 15:30:08;;;;;;;;;;;;;;;;;;5018692;28;19929;-76
2023/08/08 15:32:55;;;;;;;;;;;;;;;;;;5014562;28;20207;-75
2023/08/08 15:35:41;;;;;;;;;;;;;;;;;;5018799;28;20300;-76
2023/08/08 15:38:28;;;;;;;;;;;;;;;;;;5017315;28;19924;-75
2023/08/08 15:41:14;;;;;;;;;;;;;;;;;;5021172;28;19922;-76
2023/08/08 15:46:38;;;;;;;;;;;;;;;;;;5108758;22;19925;-76
2023/08/08 15:49:25;;;;;;;;;;;;;;;;;;5014708;28;19932;-75
2023/08/08 15:52:11;;;;;;;;;;;;;;;;;;5019505;28;19929;-72
2023/08/08 15:54:58;;;;;;;;;;;;;;;;;;5016986;28;19925;-73
2023/08/08 15:57:44;;;;;;;;;;;;;;;;;;5018371;28;19932;-73
2023/08/08 16:00:31;;;;;;;;;;;;;;;;;;5016981;28;20443;-72
2023/08/08 16:03:17;;;;;;;;;;;;;;;;;;5008634;28;19924;-73
2023/08/08 16:06:04;;;;;;;;;;;;;;;;;;5015012;28;20394;-74
2023/08/08 16:08:50;;;;;;;;;;;;;;;;;;5006568;28;19952;-74
2023/08/08 16:11:37;;;;;;;;;;;;;;;;;;5018175;28;19929;-74
2023/08/08 16:14:23;;;;;;;;;;;;;;;;;;5030536;28;19917;-74
2023/08/08 16:17:10;;;;;;;;;;;;;;;;;;5009749;28;19923;-74
2023/08/08 16:19:56;;;;;;;;;;;;;;;;;;5017849;28;19917;-74
2023/08/08 16:22:43;;;;;;;;;;;;;;;;;;5019141;28;19921;-75
2023/08/08 16:25:29;;;;;;;;;;;;;;;;;;5016771;28;19924;-73
2023/08/08 16:28:16;;;;;;;;;;;;;;;;;;5017752;28;19924;-74
2023/08/08 16:31:02;;;;;;;;;;;;;;;;;;5008853;28;20280;-74
2023/08/08 16:33:49;;;;;;;;;;;;;;;;;;5018463;28;19928;-74
2023/08/08 16:36:35;;;;;;;;;;;;;;;;;;5020511;28;19928;-73
2023/08/08 16:39:22;;;;;;;;;;;;;;;;;;5013781;28;19948;-73
2023/08/08 16:42:08;;;;;;;;;;;;;;;;;;5022172;28;20616;-73
2023/08/08 16:44:55;;;;;;;;;;;;;;;;;;5017941;28;19928;-75
2023/08/08 16:47:41;;;;;;;;;;;;;;;;;;5012537;28;20310;-76
2023/08/08 16:50:28;;;;;;;;;;;;;;;;;;5018027;28;19921;-74
2023/08/08 16:53:16;;;;;;;;;;;;;;;;;;5012985;28;19936;-74
2023/08/08 16:56:06;;;;;;;;;;;;;;;;;;5020359;28;19921;-74
2023/08/08 16:58:53;;;;;;;;;;;;;;;;;;5010251;28;19936;-74
2023/08/08 17:01:41;;;;;;;;;;;;;;;;;;5005790;28;19939;-74
2023/08/08 17:04:27;;;;;;;;;;;;;;;;;;5012846;28;19929;-75
2023/08/08 17:07:14;;;;;;;;;;;;;;;;;;5019318;28;19917;-73
2023/08/08 17:10:00;;;;;;;;;;;;;;;;;;5025707;28;20123;-73
2023/08/08 17:12:47;;;;;;;;;;;;;;;;;;5003121;28;19936;-74
2023/08/08 17:15:33;;;;;;;;;;;;;;;;;;5013408;28;20395;-74
2023/08/08 17:18:20;;;;;;;;;;;;;;;;;;5016550;28;19928;-74
2023/08/08 17:21:06;;;;;;;;;;;;;;;;;;5021602;28;20223;-74
2023/08/08 17:23:53;;;;;;;;;;;;;;;;;;5008018;28;20720;-74
2023/08/08 17:26:39;;;;;;;;;;;;;;;;;;5010065;28;19925;-74
2023/08/08 17:29:26;;;;;;;;;;;;;;;;;;5016281;28;19924;-74
2023/08/08 17:32:13;;;;;;;;;;;;;;;;;;5006937;28;19934;-73
2023/08/08 17:34:59;;;;;;;;;;;;;;;;;;5012271;28;19918;-74
2023/08/08 17:37:47;;;;;;;;;;;;;;;;;;5014517;28;19925;-74
2023/08/08 17:40:33;;;;;;;;;;;;;;;;;;5019812;28;20005;-73
2023/08/08 17:43:19;;;;;;;;;;;;;;;;;;5024967;28;20024;-73
2023/08/08 17:46:07;;;;;;;;;;;;;;;;;;5010168;28;19933;-73
2023/08/08 17:48:53;;;;;;;;;;;;;;;;;;5018046;28;19917;-74
2023/08/08 17:51:40;;;;;;;;;;;;;;;;;;5018854;28;19921;-74
2023/08/08 17:54:26;;;;;;;;;;;;;;;;;;5009050;28;20372;-74
2023/08/08 17:57:14;;;;;;;;;;;;;;;;;;5015624;28;20391;-74
2023/08/08 18:00:01;;;;;;;;;;;;;;;;;;5025710;28;20024;-74
2023/08/08 18:02:48;;;;;;;;;;;;;;;;;;5014231;28;19921;-74
2023/08/08 18:05:34;;;;;;;;;;;;;;;;;;5011691;28;19917;-73
2023/08/08 18:08:21;;;;;;;;;;;;;;;;;;5012535;28;19937;-74
2023/08/08 18:11:07;;;;;;;;;;;;;;;;;;5012574;28;19931;-74
2023/08/08 18:13:55;;;;;;;;;;;;;;;;;;5014423;28;19943;-75
2023/08/08 18:16:41;;;;;;;;;;;;;;;;;;5015972;28;19921;-76
2023/08/08 18:19:28;;;;;;;;;;;;;;;;;;5019233;28;20451;-74
2023/08/08 18:22:14;;;;;;;;;;;;;;;;;;5023989;28;20383;-75
2023/08/08 18:25:01;;;;;;;;;;;;;;;;;;5023331;28;19921;-73
2023/08/08 18:27:47;;;;;;;;;;;;;;;;;;5019584;28;19943;-74
2023/08/08 18:30:34;;;;;;;;;;;;;;;;;;5012839;28;19924;-74
2023/08/08 18:33:20;;;;;;;;;;;;;;;;;;5017323;28;20442;-74
2023/08/08 18:36:08;;;;;;;;;;;;;;;;;;5033914;28;20028;-73
2023/08/08 18:38:54;;;;;;;;;;;;;;;;;;5007710;28;19922;-74
2023/08/08 18:41:41;;;;;;;;;;;;;;;;;;5016293;28;19922;-74
2023/08/08 18:44:27;;;;;;;;;;;;;;;;;;5015871;28;20268;-74
2023/08/08 18:47:14;;;;;;;;;;;;;;;;;;5013457;28;19936;-74
2023/08/08 18:50:00;;;;;;;;;;;;;;;;;;5016170;28;19943;-74
2023/08/08 18:52:47;;;;;;;;;;;;;;;;;;5016373;28;19937;-74
2023/08/08 18:55:33;;;;;;;;;;;;;;;;;;5025649;28;19913;-75
2023/08/08 18:58:20;;;;;;;;;;;;;;;;;;5021632;28;19921;-75
2023/08/08 19:01:06;;;;;;;;;;;;;;;;;;5008541;28;19923;-74